Airfield :
LOGIN :

Register | Disclaimer

   EN    FR    IT 

 










Legend :    VFR   Marginal VFR   IFR   Intensive IFR   Very Intensive IFR
Visi :
Ceiling :
>= 8 km
>= 3000ft
5 to 8 km
1000 to 3000 ft
1500m to 5 km
500 to 1000 ft
800 to 1500m
200 to 500 ft
< 800m
< 200 ft
Symbols :   Thunderstorms  Fog  Heavy snow  Heavy precipitations  Wind > 20 kt
SIGMETs :     Misc.  Thunderstorms  Icing  Turbulence  Mountain Waves  Volcanic Ashes






- Airport Elevation : -13 ft
- IATA code : LEY


EHLE - Lelystad

CURRENT METAR :
  • 141855Z AUTO 06006KT 9999 // NSC 06/04 Q1004 RE// NOSIG

EXPIRED METARs :
  • 141825Z AUTO 07006KT 9999 // NSC 06/04 Q1004 RE// NOSIG
  • 141755Z AUTO 08004KT 9999 // NSC 06/04 Q1004 RE// NOSIG
  • 141725Z AUTO 09006KT 060V120 9999 // FEW041 07/04 Q1003 RE// NOSIG
  • 141655Z AUTO 10006KT 070V130 9999 // OVC038 07/04 Q1003 RE// NOSIG
  • 141625Z AUTO 09007KT 060V120 9999 // OVC036 07/04 Q1003 RE// NOSIG
  • 141555Z AUTO 10005KT 070V130 9999 // OVC033 07/04 Q1003 RE// NOSIG

TAF TAF EHLE
Valid from the 14 at 18:00 until the 16 at 00:00 UTC


141651Z 1418/1524 08007KT 9999 BKN025
BECMG 1502/1505 07012G22KT BKN014
PROB40 1502/1510 BKN008
BECMG 1512/1515 BKN018
BECMG 1515/1518 10006KT SCT022
BECMG 1522/1524 4000 BR



MET'MAP, your aeronautical weather chart ! - Copyright ORBIFLY December 2007 - Disclaimer

ORBIFLY MET'MAP TEAM :

Programming & Development : Alexandra Zaïnal
Concept & Development : Baudouin d'Aumeries
Co-Development & Prog : Marc-Olivier Méhu
Technical & hardware support : Manuel Goepfert

Contact : metmap@orbifly.com




SOURCES & CREDITS :

   NOAA